Terminal Aerodrome Forecast
Issued by NWS

Home | Current Version | Previous Version | Text Only | Print | Product List | Glossary On
Versions: 1 2 3 4 5 6 7 8 9 10 11 12 13
000
FTUS42 TJSJ 200500
TAFJPS
TAF
TJPS 200536Z 2006/2106 00000KT P6SM FEW030
     FM201400 13010KT P6SM SCT040
     FM202200 05004KT P6SM FEW030
      AMD NOT SKED 2012/2103=

USA.gov is the U.S. government's official web portal to all federal, state and local government web resources and services.